Time;durP1;ratioP1;P1;durP2;ratioP2;P2;SDS_P1;SDS_P2;PMS_P1;PMS_P2;Temp;Humidity;BMP_temperature;BMP_pressure;BME280_temperature;BME280_humidity;BME280_pressure;Samples;Min_cycle;Max_cycle;Signal;HPM_P1;HPM_P2
2023/08/21 00:02:22;;;;;;;5.88;3.10;;;21.70;99.90;;;;;;5011150;28;20355;-47
2023/08/21 00:04:48;;;;;;;7.40;3.25;;;21.60;99.90;;;;;;5011583;28;20171;-44
2023/08/21 00:07:13;;;;;;;8.13;3.35;;;21.70;99.90;;;;;;5011319;28;20255;-48
2023/08/21 00:09:39;;;;;;;6.90;3.00;;;21.70;99.90;;;;;;5011147;28;20632;-45
2023/08/21 00:12:05;;;;;;;6.47;3.30;;;21.70;99.90;;;;;;5011202;28;20172;-45
2023/08/21 00:14:31;;;;;;;6.80;3.13;;;21.70;99.90;;;;;;5011106;28;20266;-46
2023/08/21 00:16:56;;;;;;;6.18;2.80;;;21.70;99.90;;;;;;5011230;28;20588;-45
2023/08/21 00:19:22;;;;;;;5.38;3.10;;;21.70;99.90;;;;;;5011198;28;20561;-44
2023/08/21 00:21:47;;;;;;;5.80;3.03;;;21.70;99.90;;;;;;4995931;28;20168;-46
2023/08/21 00:24:13;;;;;;;5.60;3.22;;;21.70;99.90;;;;;;4991443;28;20184;-48
2023/08/21 00:26:38;;;;;;;4.63;3.13;;;21.70;99.90;;;;;;4991401;28;20255;-45
2023/08/21 00:29:04;;;;;;;4.50;3.03;;;21.60;99.90;;;;;;4991526;28;20226;-44
2023/08/21 00:31:30;;;;;;;8.27;3.40;;;21.60;99.90;;;;;;4991432;28;20172;-47
2023/08/21 00:33:55;;;;;;;7.15;3.38;;;21.60;99.90;;;;;;4991376;28;20180;-49
2023/08/21 00:36:21;;;;;;;8.50;3.33;;;21.50;99.90;;;;;;4991546;28;20165;-45
2023/08/21 00:38:47;;;;;;;8.20;3.78;;;21.40;99.90;;;;;;4991681;28;20212;-49
2023/08/21 00:41:13;;;;;;;7.18;4.05;;;21.30;99.90;;;;;;4991547;28;20197;-42
2023/08/21 00:43:39;;;;;;;7.32;3.67;;;21.30;99.90;;;;;;4991301;28;20707;-43
2023/08/21 00:46:05;;;;;;;10.95;3.53;;;21.30;99.90;;;;;;5001105;28;20183;-44
2023/08/21 00:48:31;;;;;;;9.52;3.75;;;21.30;99.90;;;;;;5010938;28;20699;-42
2023/08/21 00:50:57;;;;;;;8.70;3.35;;;21.10;99.90;;;;;;5009735;28;20637;-42
2023/08/21 00:53:23;;;;;;;7.10;3.80;;;21.10;99.90;;;;;;5010792;28;20255;-43
2023/08/21 00:55:49;;;;;;;10.07;3.90;;;21.00;99.90;;;;;;5012111;28;20191;-42
2023/08/21 00:58:16;;;;;;;6.78;3.42;;;21.00;99.90;;;;;;5014642;28;20200;-42
2023/08/21 01:00:44;;;;;;;8.75;3.75;;;21.10;99.90;;;;;;5014533;28;20164;-42
2023/08/21 01:03:10;;;;;;;9.23;3.90;;;21.10;99.90;;;;;;5014557;28;20600;-42
2023/08/21 01:05:36;;;;;;;4.40;3.28;;;21.10;99.90;;;;;;5014393;28;20203;-43
2023/08/21 01:08:20;;;;;;;8.68;3.30;;;21.20;99.90;;;;;;5014665;28;20168;-42
2023/08/21 01:10:53;;;;;;;6.22;3.67;;;21.10;99.90;;;;;;5014794;28;20191;-42
2023/08/21 01:13:28;;;;;;;6.88;3.33;;;21.10;99.90;;;;;;5014600;28;20255;-43
2023/08/21 01:15:55;;;;;;;6.90;3.33;;;21.10;99.90;;;;;;5013555;28;20175;-43
2023/08/21 01:18:22;;;;;;;6.85;3.55;;;21.10;99.90;;;;;;5012252;28;20802;-43
2023/08/21 01:20:48;;;;;;;8.68;3.35;;;21.10;99.90;;;;;;5014204;28;20180;-43
2023/08/21 01:23:35;;;;;;;7.55;3.70;;;21.10;99.90;;;;;;5011974;28;20216;-43
2023/08/21 01:26:01;;;;;;;7.15;3.78;;;21.00;99.90;;;;;;5014329;28;20176;-43
2023/08/21 01:28:27;;;;;;;7.05;3.95;;;20.90;99.90;;;;;;5014151;28;20176;-42
2023/08/21 01:31:08;;;;;;;9.57;3.92;;;20.80;99.90;;;;;;5014003;28;20164;-42
2023/08/21 01:33:38;;;;;;;9.43;3.38;;;20.80;99.90;;;;;;5013974;28;20194;-43
2023/08/21 01:36:04;;;;;;;5.78;2.85;;;20.70;99.90;;;;;;5013981;28;20628;-43
2023/08/21 01:38:33;;;;;;;8.77;3.30;;;20.70;99.90;;;;;;5013973;28;20212;-43
2023/08/21 01:40:58;;;;;;;5.90;2.90;;;20.70;99.90;;;;;;5013836;28;20164;-43
2023/08/21 01:43:24;;;;;;;10.07;3.55;;;20.70;99.90;;;;;;5013776;28;20217;-43
2023/08/21 01:45:50;;;;;;;5.53;2.92;;;20.80;99.90;;;;;;5004903;28;20224;-42
2023/08/21 01:48:15;;;;;;;6.85;3.10;;;20.80;99.90;;;;;;4994595;28;20177;-42
2023/08/21 01:50:41;;;;;;;10.30;3.45;;;20.90;99.90;;;;;;4992710;28;20651;-43
2023/08/21 01:53:06;;;;;;;7.10;3.15;;;20.90;99.90;;;;;;4994347;28;20208;-42
2023/08/21 01:55:32;;;;;;;7.40;3.10;;;20.80;99.90;;;;;;4993957;28;20180;-42
2023/08/21 01:57:57;;;;;;;6.57;3.60;;;20.80;99.90;;;;;;4993761;28;20196;-43
2023/08/21 02:00:23;;;;;;;6.72;3.30;;;20.80;99.90;;;;;;4993791;28;20173;-43
2023/08/21 02:02:48;;;;;;;5.72;3.35;;;20.80;99.90;;;;;;4994133;28;20168;-42
2023/08/21 02:05:14;;;;;;;11.15;3.78;;;20.70;99.90;;;;;;4993688;28;20165;-43
2023/08/21 02:07:39;;;;;;;7.10;3.45;;;20.70;99.90;;;;;;4993374;28;20173;-42
2023/08/21 02:10:06;;;;;;;9.25;4.32;;;20.60;99.90;;;;;;4993525;28;20164;-42
2023/08/21 02:12:31;;;;;;;8.10;3.55;;;20.60;99.90;;;;;;4992022;28;20303;-43
2023/08/21 02:14:57;;;;;;;5.82;3.60;;;20.50;99.90;;;;;;4995687;28;20681;-43
2023/08/21 02:17:25;;;;;;;7.03;3.50;;;20.50;99.90;;;;;;5013358;28;20238;-43
2023/08/21 02:19:51;;;;;;;5.63;3.08;;;20.40;99.90;;;;;;5012927;28;20624;-43
2023/08/21 02:22:16;;;;;;;9.07;3.75;;;20.40;99.90;;;;;;5013335;28;20235;-42
2023/08/21 02:24:42;;;;;;;5.80;3.53;;;20.40;99.90;;;;;;5012949;28;20201;-44
2023/08/21 02:27:08;;;;;;;6.70;3.47;;;20.40;99.90;;;;;;5012939;28;20195;-42
2023/08/21 02:29:33;;;;;;;9.15;3.20;;;20.40;99.90;;;;;;5012683;28;20200;-42
2023/08/21 02:31:59;;;;;;;9.57;3.88;;;20.50;99.90;;;;;;5012803;28;20211;-42
2023/08/21 02:34:24;;;;;;;5.97;3.38;;;20.50;99.90;;;;;;5013018;28;20231;-42
2023/08/21 02:36:50;;;;;;;5.57;3.05;;;20.50;99.90;;;;;;5013012;28;20168;-43
2023/08/21 02:39:15;;;;;;;6.20;3.65;;;20.50;99.90;;;;;;5013059;28;20208;-43
2023/08/21 02:41:41;;;;;;;7.10;4.10;;;20.50;99.90;;;;;;5012619;28;20171;-43
2023/08/21 02:44:06;;;;;;;8.70;3.55;;;20.40;99.90;;;;;;5012510;28;20172;-43
2023/08/21 02:46:34;;;;;;;7.55;3.60;;;20.40;99.90;;;;;;4996843;28;20200;-43
2023/08/21 02:48:59;;;;;;;6.90;3.50;;;20.30;99.90;;;;;;4993306;28;20222;-44
2023/08/21 02:51:25;;;;;;;7.78;3.28;;;20.40;99.90;;;;;;4992924;28;20168;-43
2023/08/21 02:53:50;;;;;;;10.23;3.80;;;20.40;99.90;;;;;;4992894;28;20173;-43
2023/08/21 02:56:16;;;;;;;6.32;3.65;;;20.30;99.90;;;;;;4993149;28;20172;-43
2023/08/21 02:58:42;;;;;;;9.15;4.00;;;20.40;99.90;;;;;;4992761;28;20212;-42
2023/08/21 03:01:07;;;;;;;8.82;3.72;;;20.40;99.90;;;;;;4992643;28;20169;-42
2023/08/21 03:03:35;;;;;;;6.40;3.42;;;20.40;99.90;;;;;;4992667;28;20220;-42
2023/08/21 03:06:01;;;;;;;7.72;4.03;;;20.40;99.90;;;;;;4992784;28;20184;-43
2023/08/21 03:08:26;;;;;;;8.32;3.85;;;20.30;99.90;;;;;;4991252;28;20176;-43
2023/08/21 03:10:52;;;;;;;7.68;3.88;;;20.30;99.90;;;;;;4992529;28;20165;-43
2023/08/21 03:13:17;;;;;;;5.72;3.55;;;20.40;99.90;;;;;;4992793;28;20220;-43
2023/08/21 03:15:43;;;;;;;6.65;3.15;;;20.40;99.90;;;;;;5006391;28;20260;-42
2023/08/21 03:18:09;;;;;;;6.95;3.55;;;20.30;99.90;;;;;;5010984;28;20196;-43
2023/08/21 03:20:34;;;;;;;7.55;3.67;;;20.40;99.90;;;;;;5011885;28;20168;-42
2023/08/21 03:23:00;;;;;;;7.55;3.22;;;20.40;99.90;;;;;;5011926;28;20176;-43
2023/08/21 03:25:25;;;;;;;8.85;3.78;;;20.40;99.90;;;;;;5011801;28;20170;-43
2023/08/21 03:27:51;;;;;;;5.35;3.40;;;20.40;99.90;;;;;;5011898;28;20172;-43
2023/08/21 03:30:16;;;;;;;6.97;3.85;;;20.40;99.90;;;;;;5012326;28;20183;-42
2023/08/21 03:32:42;;;;;;;4.40;3.50;;;20.40;99.90;;;;;;5011525;28;20176;-44
2023/08/21 03:35:08;;;;;;;8.82;3.38;;;20.30;99.90;;;;;;5011712;28;20179;-42
2023/08/21 03:37:33;;;;;;;4.97;3.75;;;20.30;99.90;;;;;;5011634;28;20199;-43
2023/08/21 03:39:59;;;;;;;8.50;3.45;;;20.20;99.90;;;;;;5011950;28;20202;-43
2023/08/21 03:42:24;;;;;;;5.95;3.40;;;20.20;99.90;;;;;;5011611;28;20682;-44
2023/08/21 03:44:50;;;;;;;13.70;7.43;;;20.20;99.90;;;;;;5004257;28;20640;-43
2023/08/21 03:47:16;;;;;;;7.68;4.50;;;20.20;99.90;;;;;;4992460;28;20171;-43
2023/08/21 03:49:42;;;;;;;7.60;4.03;;;20.20;99.90;;;;;;4991944;28;20169;-43
2023/08/21 03:52:07;;;;;;;7.35;4.00;;;20.20;99.90;;;;;;4991764;28;20172;-43
2023/08/21 03:54:33;;;;;;;7.22;3.45;;;20.20;99.90;;;;;;4990644;28;20546;-44
2023/08/21 03:56:59;;;;;;;6.78;3.63;;;20.20;99.90;;;;;;4991749;28;20219;-45
2023/08/21 03:59:27;;;;;;;5.10;3.42;;;20.20;99.90;;;;;;4991645;28;20259;-46
2023/08/21 04:01:53;;;;;;;8.30;3.60;;;20.30;99.90;;;;;;4992166;28;20539;-44
2023/08/21 04:04:18;;;;;;;8.98;3.20;;;20.30;99.90;;;;;;4992223;28;20168;-46
2023/08/21 04:06:44;;;;;;;7.53;3.40;;;20.20;99.90;;;;;;4991828;28;20165;-46
2023/08/21 04:09:10;;;;;;;10.70;3.33;;;20.10;99.90;;;;;;4991975;28;20634;-45
2023/08/21 04:11:36;;;;;;;8.23;3.78;;;20.10;99.90;;;;;;4991682;28;20172;-45
2023/08/21 04:14:02;;;;;;;6.80;3.85;;;20.10;99.90;;;;;;4996954;28;20211;-44
2023/08/21 04:16:28;;;;;;;8.73;3.63;;;20.10;99.90;;;;;;5009875;28;20674;-44
2023/08/21 04:18:54;;;;;;;10.70;4.22;;;20.00;99.90;;;;;;5011349;28;20211;-44
2023/08/21 04:21:19;;;;;;;6.63;3.80;;;20.00;99.90;;;;;;5011557;28;20171;-44
2023/08/21 04:23:48;;;;;;;8.38;3.28;;;20.10;99.90;;;;;;5011292;28;20172;-44
2023/08/21 04:26:13;;;;;;;6.00;4.05;;;20.00;99.90;;;;;;5011038;28;20628;-44
2023/08/21 04:28:39;;;;;;;11.00;3.67;;;20.00;99.90;;;;;;5010978;28;20179;-44
2023/08/21 04:31:06;;;;;;;8.75;3.85;;;19.90;99.90;;;;;;5014376;28;20591;-44
2023/08/21 04:33:32;;;;;;;7.82;4.00;;;20.00;99.90;;;;;;5015385;28;20528;-45
2023/08/21 04:35:58;;;;;;;7.88;5.07;;;19.90;99.90;;;;;;5014852;28;20640;-45
2023/08/21 04:38:23;;;;;;;5.63;3.47;;;19.90;99.90;;;;;;5014604;28;20222;-44
2023/08/21 04:40:49;;;;;;;8.43;3.65;;;19.90;99.90;;;;;;5015553;28;20172;-44
2023/08/21 04:43:14;;;;;;;8.05;3.55;;;19.90;99.90;;;;;;5015499;28;20575;-44
2023/08/21 04:45:50;;;;;;;9.32;3.78;;;19.90;99.90;;;;;;5014192;28;20172;-44
2023/08/21 04:48:16;;;;;;;10.73;3.50;;;20.00;99.90;;;;;;5015385;28;20179;-44
2023/08/21 04:50:42;;;;;;;4.75;3.75;;;20.00;99.90;;;;;;5014813;28;20743;-44
2023/08/21 04:53:08;;;;;;;8.30;4.28;;;19.90;99.90;;;;;;5014701;28;20514;-44
2023/08/21 04:55:33;;;;;;;9.77;3.80;;;19.90;99.90;;;;;;5014525;28;20278;-44
2023/08/21 04:57:59;;;;;;;10.43;4.20;;;20.00;99.90;;;;;;5014538;28;20210;-44
2023/08/21 05:00:24;;;;;;;13.80;4.05;;;20.00;99.90;;;;;;5014438;28;20204;-46
2023/08/21 05:02:50;;;;;;;8.18;3.45;;;20.10;99.90;;;;;;5014598;28;20172;-44
2023/08/21 05:05:15;;;;;;;7.57;4.15;;;20.00;99.90;;;;;;5014774;28;20278;-44
2023/08/21 05:07:41;;;;;;;8.98;3.92;;;20.00;99.90;;;;;;5014371;28;20161;-44
2023/08/21 05:10:07;;;;;;;6.15;3.78;;;20.00;99.90;;;;;;5014342;28;20183;-44
2023/08/21 05:12:33;;;;;;;10.80;4.07;;;19.90;99.90;;;;;;5013988;28;20619;-47
2023/08/21 05:14:58;;;;;;;10.65;4.07;;;19.90;99.90;;;;;;4995591;28;20269;-44
2023/08/21 05:17:25;;;;;;;9.48;3.58;;;19.90;99.90;;;;;;4994589;28;20175;-45
2023/08/21 05:19:51;;;;;;;7.78;3.67;;;19.90;99.90;;;;;;4994709;28;20216;-44
2023/08/21 05:22:16;;;;;;;5.82;3.40;;;20.00;99.90;;;;;;4994829;28;20251;-46
2023/08/21 05:24:42;;;;;;;6.32;4.20;;;19.90;99.90;;;;;;4994286;28;20255;-45
2023/08/21 05:27:07;;;;;;;7.97;3.85;;;20.00;99.90;;;;;;4993064;28;20176;-45
2023/08/21 05:29:34;;;;;;;6.07;3.63;;;20.10;99.90;;;;;;4994572;28;20175;-45
2023/08/21 05:32:00;;;;;;;7.53;3.80;;;20.20;99.90;;;;;;4994480;28;20177;-46
2023/08/21 05:34:25;;;;;;;10.00;3.90;;;20.30;99.90;;;;;;4994252;28;20184;-45
2023/08/21 05:36:54;;;;;;;9.82;4.00;;;20.30;99.90;;;;;;4994359;28;20544;-45
2023/08/21 05:39:20;;;;;;;9.57;4.32;;;20.60;99.90;;;;;;4994118;28;20205;-44
2023/08/21 05:41:45;;;;;;;8.80;4.63;;;20.50;99.90;;;;;;4993966;28;20540;-45
2023/08/21 05:44:11;;;;;;;6.13;4.15;;;20.50;99.90;;;;;;5006290;28;20172;-51
2023/08/21 05:46:37;;;;;;;10.60;4.55;;;20.60;99.90;;;;;;5013574;28;20247;-51
2023/08/21 05:49:03;;;;;;;10.90;3.88;;;20.60;99.90;;;;;;5013954;28;20230;-51
2023/08/21 05:51:29;;;;;;;8.20;4.00;;;20.60;99.90;;;;;;5013767;28;20164;-51
2023/08/21 05:53:55;;;;;;;18.02;5.03;;;20.60;99.90;;;;;;5013749;28;20624;-50
2023/08/21 05:56:21;;;;;;;10.02;4.65;;;20.60;99.90;;;;;;5013465;28;20258;-51
2023/08/21 05:58:47;;;;;;;9.20;4.47;;;20.60;99.90;;;;;;5013745;28;20298;-50
2023/08/21 06:01:12;;;;;;;7.85;3.75;;;20.70;99.90;;;;;;5013307;28;20247;-51
2023/08/21 06:03:38;;;;;;;8.63;6.25;;;20.80;99.90;;;;;;5013207;28;20251;-50
2023/08/21 06:06:03;;;;;;;7.22;4.55;;;20.80;99.90;;;;;;5013323;28;20183;-50
2023/08/21 06:08:29;;;;;;;7.05;3.90;;;20.80;99.90;;;;;;5013494;28;20597;-51
2023/08/21 06:10:54;;;;;;;7.13;4.20;;;20.80;99.90;;;;;;5013279;28;20172;-52
2023/08/21 06:13:20;;;;;;;5.82;4.00;;;21.00;99.90;;;;;;5006514;28;20216;-53
2023/08/21 06:15:46;;;;;;;13.60;4.85;;;21.00;99.90;;;;;;4993820;28;20672;-51
2023/08/21 06:18:11;;;;;;;10.85;4.90;;;21.10;99.90;;;;;;4993451;28;20200;-51
2023/08/21 06:20:37;;;;;;;14.18;5.30;;;21.10;99.90;;;;;;4993336;28;20228;-51
2023/08/21 06:23:03;;;;;;;8.52;4.45;;;21.10;99.90;;;;;;4993313;28;20284;-52
2023/08/21 06:25:30;;;;;;;9.10;4.55;;;21.20;99.90;;;;;;4993317;28;20164;-51
2023/08/21 06:27:56;;;;;;;16.00;4.78;;;21.30;99.90;;;;;;4993640;28;20203;-51
2023/08/21 06:30:21;;;;;;;13.02;4.70;;;21.40;99.90;;;;;;4993330;28;20208;-51
2023/08/21 06:32:47;;;;;;;14.00;5.05;;;21.50;99.90;;;;;;4993716;28;20179;-50
2023/08/21 06:35:14;;;;;;;7.38;4.30;;;21.60;99.90;;;;;;4993155;28;20629;-52
2023/08/21 06:37:40;;;;;;;8.77;4.55;;;21.70;99.90;;;;;;4993356;28;20177;-52
2023/08/21 06:40:06;;;;;;;9.85;5.10;;;21.70;99.90;;;;;;4993214;28;20219;-53
2023/08/21 06:42:32;;;;;;;8.95;4.55;;;21.80;99.90;;;;;;4997424;28;20198;-52
2023/08/21 06:44:57;;;;;;;11.60;4.85;;;21.90;99.90;;;;;;5012720;28;20624;-50
2023/08/21 06:47:23;;;;;;;8.52;4.35;;;22.00;99.90;;;;;;5012490;28;20172;-53
2023/08/21 06:49:49;;;;;;;12.27;3.95;;;22.00;99.90;;;;;;5013314;28;20180;-52
2023/08/21 06:52:14;;;;;;;7.65;4.15;;;22.00;99.90;;;;;;5012992;28;20171;-52
2023/08/21 06:54:40;;;;;;;7.93;4.15;;;21.90;99.90;;;;;;5011213;28;20168;-51
2023/08/21 06:57:05;;;;;;;13.02;4.65;;;22.00;99.90;;;;;;5012455;28;20210;-51
2023/08/21 06:59:35;;;;;;;10.95;4.38;;;22.10;99.90;;;;;;5012133;28;20575;-46
2023/08/21 07:02:02;;;;;;;10.98;4.60;;;22.10;99.90;;;;;;5012593;28;20182;-47
2023/08/21 07:04:27;;;;;;;11.23;5.57;;;22.20;99.90;;;;;;5012195;28;20538;-46
2023/08/21 07:06:53;;;;;;;13.25;4.45;;;22.20;99.90;;;;;;5012358;28;20164;-44
2023/08/21 07:09:18;;;;;;;12.27;4.30;;;22.40;99.90;;;;;;5012648;28;20251;-46
2023/08/21 07:11:44;;;;;;;10.07;4.50;;;22.40;99.90;;;;;;5012417;28;20632;-45
2023/08/21 07:14:20;;;;;;;14.93;4.45;;;22.40;99.90;;;;;;5088207;28;20288;-43
2023/08/21 07:16:46;;;;;;;7.85;4.60;;;22.40;99.90;;;;;;5088966;28;20626;-45
2023/08/21 07:19:11;;;;;;;15.52;4.43;;;22.40;99.90;;;;;;5088281;28;20219;-44
2023/08/21 07:21:38;;;;;;;10.43;4.85;;;22.60;99.90;;;;;;5088470;28;20231;-44
2023/08/21 07:24:04;;;;;;;13.32;4.68;;;22.50;99.90;;;;;;5088456;28;20687;-46
2023/08/21 07:26:29;;;;;;;12.18;4.80;;;22.80;99.90;;;;;;5088692;28;20173;-43
2023/08/21 07:28:55;;;;;;;6.47;3.95;;;22.90;99.90;;;;;;5088533;28;20525;-43
2023/08/21 07:31:22;;;;;;;12.38;4.13;;;23.10;99.90;;;;;;5088324;28;20218;-43
2023/08/21 07:33:47;;;;;;;13.70;4.97;;;23.10;99.90;;;;;;5088868;28;20613;-43
2023/08/21 07:36:16;;;;;;;11.88;4.13;;;23.10;99.90;;;;;;5088134;28;20218;-43
2023/08/21 07:38:43;;;;;;;12.50;4.10;;;23.30;99.90;;;;;;5088298;28;20161;-43
2023/08/21 07:41:10;;;;;;;9.15;4.13;;;23.20;99.90;;;;;;5087941;28;20624;-43
2023/08/21 07:43:37;;;;;;;13.45;4.75;;;23.20;99.90;;;;;;5067146;28;20855;-43
2023/08/21 07:46:07;;;;;;;11.45;4.38;;;23.50;99.90;;;;;;5067739;28;20177;-43
2023/08/21 07:48:33;;;;;;;16.38;5.03;;;23.40;99.90;;;;;;5067651;28;20189;-43
2023/08/21 07:50:59;;;;;;;12.68;4.63;;;23.70;99.90;;;;;;5067846;28;20255;-43
2023/08/21 07:53:26;;;;;;;16.63;4.13;;;23.70;99.90;;;;;;5067723;28;20275;-43
2023/08/21 07:55:51;;;;;;;9.93;3.72;;;23.70;99.90;;;;;;5067401;28;20162;-44
2023/08/21 07:58:18;;;;;;;13.23;4.68;;;23.90;99.90;;;;;;5067905;28;20180;-50
2023/08/21 08:00:43;;;;;;;14.38;4.97;;;23.90;99.90;;;;;;5067270;28;20303;-50
2023/08/21 08:03:09;;;;;;;16.38;4.50;;;23.90;99.90;;;;;;5067386;28;20241;-50
2023/08/21 08:05:35;;;;;;;15.15;4.28;;;23.90;99.90;;;;;;5067495;28;20266;-48
2023/08/21 08:08:01;;;;;;;19.83;4.40;;;24.00;99.90;;;;;;5067233;28;20195;-50
2023/08/21 08:10:26;;;;;;;14.80;4.53;;;24.10;99.90;;;;;;5067457;28;20161;-49
2023/08/21 08:12:53;;;;;;;12.57;4.05;;;24.10;99.90;;;;;;5088581;28;20261;-50
2023/08/21 08:15:19;;;;;;;13.32;4.32;;;24.20;99.90;;;;;;5108296;28;20176;-49
2023/08/21 08:17:47;;;;;;;12.75;4.22;;;24.30;99.90;;;;;;5108092;28;20160;-50
2023/08/21 08:20:13;;;;;;;17.15;4.72;;;24.20;99.90;;;;;;5107671;28;20190;-50
2023/08/21 08:22:39;;;;;;;15.38;4.00;;;24.40;99.90;;;;;;5107456;28;20237;-51
2023/08/21 08:25:06;;;;;;;14.13;4.53;;;24.60;99.90;;;;;;5097074;28;20169;-48
2023/08/21 08:27:32;;;;;;;13.85;4.88;;;24.70;99.90;;;;;;5093826;28;20222;-45
2023/08/21 08:29:58;;;;;;;11.60;5.03;;;24.50;99.90;;;;;;5093842;28;20153;-44
2023/08/21 08:32:25;;;;;;;11.93;5.40;;;24.70;99.90;;;;;;5093673;28;20598;-47
2023/08/21 08:34:50;;;;;;;9.60;4.60;;;24.70;99.90;;;;;;5093650;28;20640;-47
2023/08/21 08:37:16;;;;;;;15.15;4.45;;;24.90;99.90;;;;;;5094084;28;20234;-45
2023/08/21 08:39:41;;;;;;;10.63;5.03;;;25.00;99.90;;;;;;5093572;28;20233;-44
2023/08/21 08:42:08;;;;;;;14.63;4.97;;;25.00;99.90;;;;;;5080806;28;20191;-48
2023/08/21 08:44:36;;;;;;;13.30;5.65;;;25.10;99.90;;;;;;5073234;28;20170;-44
2023/08/21 08:47:02;;;;;;;16.58;5.47;;;25.10;99.90;;;;;;5073194;28;20650;-44
2023/08/21 08:49:28;;;;;;;15.63;5.45;;;25.10;99.90;;;;;;5073280;28;20178;-44
2023/08/21 08:51:54;;;;;;;6.93;4.60;;;25.10;99.90;;;;;;5073090;28;20170;-44
2023/08/21 08:54:21;;;;;;;15.93;6.68;;;25.20;99.90;;;;;;5073300;28;20166;-44
2023/08/21 08:56:47;;;;;;;11.75;7.43;;;25.40;99.90;;;;;;5073474;28;20160;-43
2023/08/21 08:59:14;;;;;;;11.88;6.32;;;25.30;99.90;;;;;;5073033;28;20170;-44
2023/08/21 09:01:41;;;;;;;15.23;5.90;;;25.20;99.90;;;;;;5073202;28;20169;-49
2023/08/21 09:04:06;;;;;;;11.93;5.55;;;25.50;99.90;;;;;;5073281;28;20169;-44
2023/08/21 09:06:33;;;;;;;14.68;5.35;;;25.50;99.90;;;;;;5072973;28;20165;-46
2023/08/21 09:08:59;;;;;;;15.45;6.40;;;25.60;99.90;;;;;;5072832;28;20288;-44
2023/08/21 09:11:24;;;;;;;15.15;6.45;;;25.70;99.90;;;;;;5079724;28;20683;-44
2023/08/21 09:13:51;;;;;;;16.90;7.28;;;25.70;99.90;;;;;;5092371;28;20229;-46
2023/08/21 09:16:24;;;;;;;11.65;6.75;;;25.80;99.90;;;;;;5093315;28;20252;-44
2023/08/21 09:18:56;;;;;;;10.40;6.70;;;25.90;99.90;;;;;;5092754;28;20167;-51
2023/08/21 09:21:24;;;;;;;10.95;6.90;;;25.80;99.90;;;;;;5092716;28;20167;-53
2023/08/21 09:24:05;;;;;;;11.38;7.82;;;25.80;99.90;;;;;;5093043;28;20200;-46
2023/08/21 09:26:34;;;;;;;14.23;7.50;;;25.70;99.90;;;;;;5092738;28;20708;-46
2023/08/21 09:29:04;;;;;;;10.98;7.10;;;25.90;99.90;;;;;;5092584;28;20252;-47
2023/08/21 09:31:31;;;;;;;11.60;6.68;;;26.00;99.90;;;;;;5092927;28;20177;-45
2023/08/21 09:34:04;;;;;;;10.52;7.55;;;26.00;99.90;;;;;;5092455;28;20200;-49
2023/08/21 09:36:30;;;;;;;12.50;8.00;;;26.20;99.90;;;;;;5085945;28;20170;-46
2023/08/21 09:38:56;;;;;;;11.10;7.45;;;26.40;99.90;;;;;;5072483;28;20263;-45
2023/08/21 09:41:23;;;;;;;11.60;6.65;;;26.20;99.90;;;;;;5072306;28;20200;-46
2023/08/21 09:43:49;;;;;;;12.15;6.22;;;26.30;99.90;;;;;;5072485;28;20169;-49
2023/08/21 09:46:18;;;;;;;13.88;7.03;;;26.40;99.90;;;;;;5072532;28;20162;-50
2023/08/21 09:48:46;;;;;;;23.67;8.15;;;26.50;99.90;;;;;;5072219;28;20580;-50
2023/08/21 09:51:11;;;;;;;11.98;9.02;;;26.50;99.90;;;;;;5071607;28;20169;-50
2023/08/21 09:53:38;;;;;;;12.10;8.05;;;26.80;99.90;;;;;;5071803;28;20205;-44
2023/08/21 09:56:05;;;;;;;11.27;8.27;;;26.70;99.90;;;;;;5072105;28;20172;-45
2023/08/21 09:58:30;;;;;;;14.10;7.00;;;27.00;99.90;;;;;;5071869;28;20625;-45
2023/08/21 10:00:57;;;;;;;15.98;9.75;;;27.10;99.90;;;;;;5072044;28;20193;-44
2023/08/21 10:03:23;;;;;;;11.60;8.05;;;27.40;99.90;;;;;;5071789;28;20165;-45
2023/08/21 10:05:50;;;;;;;14.63;9.05;;;27.70;99.90;;;;;;5072075;28;20541;-45
2023/08/21 10:08:23;;;;;;;15.18;9.65;;;27.70;99.90;;;;;;5072420;28;20196;-45
2023/08/21 10:10:48;;;;;;;12.57;8.23;;;27.60;99.90;;;;;;5071683;28;20231;-45
2023/08/21 10:13:14;;;;;;;14.63;8.60;;;27.70;99.90;;;;;;5071734;28;20693;-45
2023/08/21 10:15:42;;;;;;;17.63;9.10;;;27.90;99.90;;;;;;5071573;28;20193;-48
2023/08/21 10:18:18;;;;;;;14.55;10.52;;;27.90;99.90;;;;;;5071632;28;20794;-51
2023/08/21 10:20:44;;;;;;;18.98;10.35;;;28.00;99.90;;;;;;5071743;28;20628;-45
2023/08/21 10:23:09;;;;;;;12.90;11.20;;;27.90;99.90;;;;;;5071329;28;20176;-45
2023/08/21 10:25:41;;;;;;;13.98;11.10;;;27.90;99.90;;;;;;5071337;28;20215;-45
2023/08/21 10:28:07;;;;;;;13.40;10.27;;;27.90;99.90;;;;;;5071360;28;20560;-45
2023/08/21 10:30:33;;;;;;;14.75;10.45;;;28.00;99.90;;;;;;5071253;28;20211;-45
2023/08/21 10:32:59;;;;;;;13.68;9.50;;;27.80;99.90;;;;;;5071337;28;20201;-45
2023/08/21 10:35:30;;;;;;;11.10;9.88;;;27.90;99.90;;;;;;5073754;28;20168;-50
2023/08/21 10:38:11;;;;;;;13.95;8.45;;;27.90;99.90;;;;;;5090634;28;20165;-45
2023/08/21 10:41:00;;;;;;;12.82;7.95;;;28.00;99.90;;;;;;5090872;28;20652;-45
2023/08/21 10:43:40;;;;;;;13.65;8.82;;;28.10;99.90;;;;;;5090455;28;20176;-47
2023/08/21 10:46:08;;;;;;;15.20;8.60;;;28.00;99.90;;;;;;5091239;28;20181;-45
2023/08/21 10:48:34;;;;;;;15.48;9.82;;;28.10;99.90;;;;;;5090749;28;20251;-46
2023/08/21 10:51:03;;;;;;;12.20;8.93;;;28.10;99.90;;;;;;5091110;28;20264;-49
2023/08/21 10:53:30;;;;;;;14.40;7.53;;;28.10;99.90;;;;;;5090686;28;20226;-50
2023/08/21 10:55:56;;;;;;;11.63;8.55;;;28.10;99.90;;;;;;5090919;28;20171;-50
2023/08/21 10:58:22;;;;;;;10.43;7.90;;;28.20;99.90;;;;;;5090667;28;20168;-46
2023/08/21 11:00:56;;;;;;;11.38;6.28;;;28.40;99.90;;;;;;5091351;28;20184;-50
2023/08/21 11:03:21;;;;;;;13.07;7.22;;;28.40;99.90;;;;;;5090728;28;20178;-49
2023/08/21 11:06:06;;;;;;;13.02;7.78;;;28.20;99.90;;;;;;5083128;28;20646;-50
2023/08/21 11:08:35;;;;;;;10.85;6.25;;;28.40;99.90;;;;;;5070606;28;20190;-48
2023/08/21 11:11:05;;;;;;;12.52;6.95;;;28.10;99.90;;;;;;5070307;28;20166;-48
2023/08/21 11:13:31;;;;;;;10.48;5.07;;;28.30;99.90;;;;;;5069682;28;20217;-50
2023/08/21 11:15:59;;;;;;;10.73;5.63;;;28.50;99.90;;;;;;5070641;28;20222;-48
2023/08/21 11:18:37;;;;;;;8.82;5.60;;;28.20;99.90;;;;;;5070532;28;20169;-50
2023/08/21 11:21:11;;;;;;;19.02;6.65;;;28.10;99.90;;;;;;5070810;28;20166;-46
2023/08/21 11:23:39;;;;;;;7.95;5.72;;;28.50;99.90;;;;;;5070564;28;20196;-46
2023/08/21 11:26:05;;;;;;;10.40;6.30;;;28.20;99.90;;;;;;5070368;28;20691;-46
2023/08/21 11:28:31;;;;;;;12.48;5.78;;;28.20;99.90;;;;;;5070326;28;20173;-46
2023/08/21 11:30:58;;;;;;;11.98;6.55;;;28.50;99.90;;;;;;5070050;28;20640;-49
2023/08/21 11:33:23;;;;;;;12.32;6.20;;;28.60;99.90;;;;;;5070186;28;20205;-46
2023/08/21 11:35:50;;;;;;;11.23;6.00;;;28.70;99.90;;;;;;5081896;28;20259;-46
2023/08/21 11:38:17;;;;;;;9.60;5.47;;;28.60;99.90;;;;;;5091127;28;20176;-46
2023/08/21 11:41:00;;;;;;;14.15;5.85;;;28.60;99.90;;;;;;5090341;28;20694;-46
2023/08/21 11:43:36;;;;;;;11.70;6.03;;;28.50;99.90;;;;;;5090298;28;20172;-46
2023/08/21 11:46:07;;;;;;;8.52;5.70;;;28.30;99.90;;;;;;5090247;28;20521;-45
2023/08/21 11:48:32;;;;;;;13.88;5.80;;;28.50;99.90;;;;;;5090202;28;20173;-50
2023/08/21 11:50:58;;;;;;;15.00;6.63;;;28.50;99.90;;;;;;5090130;28;20187;-49
2023/08/21 11:53:40;;;;;;;11.50;6.47;;;28.60;99.90;;;;;;5090453;28;20608;-50
2023/08/21 11:56:14;;;;;;;13.02;6.68;;;28.50;99.90;;;;;;5089997;28;20168;-48
2023/08/21 11:58:41;;;;;;;7.72;5.47;;;28.90;99.90;;;;;;5090164;28;20774;-46
2023/08/21 12:01:10;;;;;;;10.10;6.32;;;28.80;99.90;;;;;;5093431;28;20210;-46
2023/08/21 12:03:37;;;;;;;11.60;6.25;;;29.00;99.90;;;;;;5094162;28;20164;-47
2023/08/21 12:06:07;;;;;;;10.52;5.32;;;28.80;99.90;;;;;;5079257;28;20539;-49
2023/08/21 12:08:33;;;;;;;13.52;6.20;;;29.10;99.90;;;;;;5073878;28;20177;-50
2023/08/21 12:10:58;;;;;;;12.93;6.20;;;29.10;99.90;;;;;;5073389;28;20176;-50
2023/08/21 12:13:24;;;;;;;10.48;5.88;;;28.90;99.90;;;;;;5073547;28;20217;-50
2023/08/21 12:15:49;;;;;;;11.30;5.28;;;28.80;99.90;;;;;;5073638;28;20188;-49
2023/08/21 12:18:15;;;;;;;16.60;6.80;;;29.10;99.90;;;;;;5073929;28;20551;-50
2023/08/21 12:20:40;;;;;;;10.75;5.63;;;29.30;99.90;;;;;;5073548;28;20248;-49
2023/08/21 12:23:06;;;;;;;22.00;5.90;;;29.50;99.90;;;;;;5073425;28;20264;-50
2023/08/21 12:25:31;;;;;;;13.02;5.45;;;29.50;99.90;;;;;;5072965;28;20269;-48
2023/08/21 12:27:57;;;;;;;11.60;5.10;;;29.60;99.90;;;;;;5073677;28;20223;-50
2023/08/21 12:30:23;;;;;;;13.65;5.20;;;29.60;99.90;;;;;;5073292;28;20248;-50
2023/08/21 12:32:48;;;;;;;9.23;5.18;;;29.40;99.90;;;;;;5073377;28;20695;-46
2023/08/21 12:35:14;;;;;;;10.07;5.85;;;29.20;99.90;;;;;;5086421;28;20169;-48
2023/08/21 12:37:39;;;;;;;9.38;5.28;;;29.20;99.90;;;;;;5093343;28;20172;-50
2023/08/21 12:40:06;;;;;;;9.45;4.60;;;29.30;99.90;;;;;;5075101;28;20222;-47